Time;durP1;ratioP1;P1;durP2;ratioP2;P2;SDS_P1;SDS_P2;PMS_P1;PMS_P2;Temp;Humidity;BMP_temperature;BMP_pressure;BME280_temperature;BME280_humidity;BME280_pressure;Samples;Min_cycle;Max_cycle;Signal;HPM_P1;HPM_P2
2023/04/02 00:00:18;;;;;;;14.32;8.00;;;;;;;;;;337482;29;1286;-84
2023/04/02 00:00:28;;;;;;;14.77;8.60;;;;;;;;;;335494;29;1143;-84
2023/04/02 00:01:05;;;;;;;17.40;8.93;;;;;;;;;;336166;29;1407;-84
2023/04/02 00:01:19;;;;;;;14.48;8.65;;;;;;;;;;336348;29;834;-83
2023/04/02 00:01:38;;;;;;;14.73;8.65;;;;;;;;;;337446;29;1227;-84
2023/04/02 00:01:49;;;;;;;12.42;8.40;;;;;;;;;;338875;29;940;-83
2023/04/02 00:02:21;;;;;;;11.97;8.10;;;;;;;;;;337540;29;1192;-83
2023/04/02 00:02:32;;;;;;;13.20;8.45;;;;;;;;;;336095;29;1515;-84
2023/04/02 00:02:56;;;;;;;12.38;8.55;;;;;;;;;;337518;29;1301;-84
2023/04/02 00:03:09;;;;;;;12.40;8.20;;;;;;;;;;335881;29;1501;-84
2023/04/02 00:03:21;;;;;;;14.48;8.35;;;;;;;;;;337543;29;872;-84
2023/04/02 00:04:02;;;;;;;13.90;8.23;;;;;;;;;;337416;29;1990;-83
2023/04/02 00:04:21;;;;;;;14.00;8.43;;;;;;;;;;336096;29;944;-84
2023/04/02 00:04:36;;;;;;;13.02;7.90;;;;;;;;;;337334;29;896;-83
2023/04/02 00:05:30;;;;;;;12.15;7.43;;;;;;;;;;335420;29;1450;-83
2023/04/02 00:05:50;;;;;;;12.98;8.13;;;;;;;;;;340103;29;941;-83
2023/04/02 00:06:01;;;;;;;12.50;8.13;;;;;;;;;;340155;29;939;-83
2023/04/02 00:06:31;;;;;;;13.20;8.45;;;;;;;;;;339856;29;821;-83
2023/04/02 00:06:44;;;;;;;12.20;7.60;;;;;;;;;;339688;29;1249;-83
2023/04/02 00:07:15;;;;;;;12.38;7.53;;;;;;;;;;340165;29;907;-83
2023/04/02 00:07:32;;;;;;;13.30;7.72;;;;;;;;;;341290;29;1755;-83
2023/04/02 00:07:43;;;;;;;13.70;8.23;;;;;;;;;;338932;29;888;-83
2023/04/02 00:07:56;;;;;;;15.65;8.75;;;;;;;;;;337615;29;932;-83
2023/04/02 00:08:37;;;;;;;15.48;8.50;;;;;;;;;;336048;29;925;-84
2023/04/02 00:08:48;;;;;;;12.20;8.10;;;;;;;;;;336207;29;885;-83
2023/04/02 00:09:16;;;;;;;12.23;7.93;;;;;;;;;;337596;29;897;-83
2023/04/02 00:09:31;;;;;;;13.35;8.30;;;;;;;;;;336184;29;860;-83
2023/04/02 00:09:41;;;;;;;13.02;8.02;;;;;;;;;;335971;29;962;-83
2023/04/02 00:09:52;;;;;;;12.45;7.63;;;;;;;;;;337444;29;1292;-83
2023/04/02 00:10:03;;;;;;;10.00;7.10;;;;;;;;;;334991;29;928;-83
2023/04/02 00:10:33;;;;;;;9.85;7.35;;;;;;;;;;335925;29;1360;-83
2023/04/02 00:10:48;;;;;;;11.23;7.97;;;;;;;;;;337455;29;1190;-83
2023/04/02 00:10:59;;;;;;;11.25;8.15;;;;;;;;;;334859;29;984;-83
2023/04/02 00:11:11;;;;;;;10.73;7.93;;;;;;;;;;336000;29;1253;-83
2023/04/02 00:11:32;;;;;;;10.05;7.60;;;;;;;;;;336199;29;861;-85
2023/04/02 00:11:43;;;;;;;11.27;8.40;;;;;;;;;;338924;29;904;-83
2023/04/02 00:11:54;;;;;;;13.23;8.68;;;;;;;;;;338824;29;1206;-83
2023/04/02 00:12:14;;;;;;;14.00;8.68;;;;;;;;;;334814;29;1279;-83
2023/04/02 00:12:25;;;;;;;11.45;7.32;;;;;;;;;;336137;29;905;-83
2023/04/02 00:12:35;;;;;;;10.40;7.20;;;;;;;;;;337429;29;1434;-83
2023/04/02 00:13:02;;;;;;;9.97;7.50;;;;;;;;;;337505;29;798;-83
2023/04/02 00:13:13;;;;;;;11.55;8.07;;;;;;;;;;335975;29;869;-83
2023/04/02 00:13:23;;;;;;;12.02;8.18;;;;;;;;;;336157;29;878;-83
2023/04/02 00:13:45;;;;;;;12.20;8.17;;;;;;;;;;336260;29;802;-83
2023/04/02 00:13:59;;;;;;;12.57;8.07;;;;;;;;;;336140;29;947;-83
2023/04/02 00:14:26;;;;;;;12.77;8.20;;;;;;;;;;338549;29;888;-83
2023/04/02 00:14:37;;;;;;;14.27;7.88;;;;;;;;;;337480;29;845;-83
2023/04/02 00:14:52;;;;;;;14.83;7.90;;;;;;;;;;337551;29;869;-83
2023/04/02 00:15:03;;;;;;;14.70;8.38;;;;;;;;;;334807;29;1290;-83
2023/04/02 00:15:16;;;;;;;14.90;8.50;;;;;;;;;;336058;29;909;-83
2023/04/02 00:15:27;;;;;;;16.02;8.48;;;;;;;;;;336289;29;916;-85
2023/04/02 00:15:38;;;;;;;15.20;8.15;;;;;;;;;;338725;29;1583;-83
2023/04/02 00:15:49;;;;;;;15.90;8.25;;;;;;;;;;336269;29;1286;-83
2023/04/02 00:16:02;;;;;;;14.73;8.63;;;;;;;;;;336351;29;865;-83
2023/04/02 00:16:13;;;;;;;12.77;8.60;;;;;;;;;;334819;29;888;-89
2023/04/02 00:16:26;;;;;;;12.43;8.18;;;;;;;;;;337508;29;896;-84
2023/04/02 00:16:36;;;;;;;14.25;8.88;;;;;;;;;;336087;29;1377;-83
2023/04/02 00:16:47;;;;;;;13.38;9.05;;;;;;;;;;336091;29;909;-83
2023/04/02 00:16:59;;;;;;;13.73;8.73;;;;;;;;;;337802;29;1226;-82
2023/04/02 00:17:09;;;;;;;13.48;8.40;;;;;;;;;;344048;28;1265;-83
2023/04/02 00:17:22;;;;;;;14.27;8.43;;;;;;;;;;342451;28;1420;-83
2023/04/02 00:17:32;;;;;;;14.23;8.57;;;;;;;;;;340075;29;1351;-83
2023/04/02 00:17:43;;;;;;;13.57;8.43;;;;;;;;;;342749;28;1302;-83
2023/04/02 00:17:53;;;;;;;13.47;8.43;;;;;;;;;;341613;29;824;-83
2023/04/02 00:18:04;;;;;;;16.25;8.60;;;;;;;;;;341341;29;1166;-83
2023/04/02 00:18:18;;;;;;;17.10;8.98;;;;;;;;;;341302;29;868;-83
2023/04/02 00:18:29;;;;;;;14.07;8.63;;;;;;;;;;342739;28;1348;-84
2023/04/02 00:18:42;;;;;;;13.32;8.55;;;;;;;;;;340209;29;908;-83
2023/04/02 00:18:54;;;;;;;12.93;8.20;;;;;;;;;;341538;29;926;-83
2023/04/02 00:19:05;;;;;;;14.13;8.38;;;;;;;;;;341505;29;864;-83
2023/04/02 00:19:38;;;;;;;16.38;8.60;;;;;;;;;;339912;29;983;-83
2023/04/02 00:19:57;;;;;;;11.23;8.00;;;;;;;;;;342809;28;963;-83
2023/04/02 00:20:10;;;;;;;12.82;8.18;;;;;;;;;;342732;28;829;-83
2023/04/02 00:20:20;;;;;;;13.43;8.38;;;;;;;;;;338588;29;1958;-83
2023/04/02 00:20:34;;;;;;;13.77;8.80;;;;;;;;;;342821;28;852;-83
2023/04/02 00:20:47;;;;;;;12.55;8.30;;;;;;;;;;341383;29;813;-83
2023/04/02 00:21:13;;;;;;;12.45;8.27;;;;;;;;;;340179;29;1011;-83
2023/04/02 00:21:26;;;;;;;15.35;8.73;;;;;;;;;;341464;29;1624;-83
2023/04/02 00:21:36;;;;;;;12.60;8.23;;;;;;;;;;341498;29;1006;-83
2023/04/02 00:21:47;;;;;;;12.90;8.48;;;;;;;;;;340171;29;974;-83
2023/04/02 00:21:57;;;;;;;13.33;8.53;;;;;;;;;;340248;29;833;-83
2023/04/02 00:22:11;;;;;;;14.57;8.98;;;;;;;;;;338790;29;1206;-83
2023/04/02 00:22:30;;;;;;;15.32;8.50;;;;;;;;;;342385;28;1289;-83
2023/04/02 00:22:42;;;;;;;17.77;7.80;;;;;;;;;;340770;29;1362;-83
2023/04/02 00:22:54;;;;;;;15.95;8.55;;;;;;;;;;340218;29;836;-83
2023/04/02 00:23:05;;;;;;;12.35;8.52;;;;;;;;;;340015;29;1261;-83
2023/04/02 00:23:15;;;;;;;12.63;8.50;;;;;;;;;;341153;29;1444;-83
2023/04/02 00:23:26;;;;;;;13.35;8.57;;;;;;;;;;341444;28;1240;-83
2023/04/02 00:23:40;;;;;;;15.73;9.30;;;;;;;;;;341222;28;1970;-84
2023/04/02 00:23:55;;;;;;;16.92;9.00;;;;;;;;;;342775;28;1201;-84
2023/04/02 00:24:16;;;;;;;15.43;9.05;;;;;;;;;;342871;28;800;-84
2023/04/02 00:24:27;;;;;;;13.68;8.02;;;;;;;;;;345037;28;957;-84
2023/04/02 00:24:37;;;;;;;12.23;7.00;;;;;;;;;;346952;28;850;-83
2023/04/02 00:24:49;;;;;;;11.15;6.82;;;;;;;;;;345462;28;993;-84
2023/04/02 00:25:02;;;;;;;10.20;6.82;;;;;;;;;;344144;28;1323;-84
2023/04/02 00:25:13;;;;;;;12.75;7.63;;;;;;;;;;342669;28;1466;-84
2023/04/02 00:25:25;;;;;;;13.52;8.63;;;;;;;;;;343751;28;1298;-84
2023/04/02 00:25:42;;;;;;;12.75;8.85;;;;;;;;;;341356;29;1414;-84
2023/04/02 00:25:52;;;;;;;11.40;8.18;;;;;;;;;;341420;29;1264;-84
2023/04/02 00:26:06;;;;;;;10.97;7.50;;;;;;;;;;341420;29;1162;-84
2023/04/02 00:26:30;;;;;;;12.43;8.02;;;;;;;;;;339917;29;943;-89
2023/04/02 00:26:44;;;;;;;13.60;8.27;;;;;;;;;;341465;29;864;-84
2023/04/02 00:26:55;;;;;;;11.65;7.65;;;;;;;;;;341448;29;1399;-84
2023/04/02 00:27:08;;;;;;;11.23;7.72;;;;;;;;;;341528;29;867;-84
2023/04/02 00:27:19;;;;;;;11.25;7.28;;;;;;;;;;343829;28;902;-85
2023/04/02 00:27:30;;;;;;;11.27;7.05;;;;;;;;;;344154;28;851;-84
2023/04/02 00:27:41;;;;;;;11.60;7.30;;;;;;;;;;342844;28;827;-84
2023/04/02 00:27:51;;;;;;;11.83;7.67;;;;;;;;;;342911;28;847;-84
2023/04/02 00:28:02;;;;;;;12.43;7.68;;;;;;;;;;345423;28;1335;-84
2023/04/02 00:28:14;;;;;;;12.30;7.90;;;;;;;;;;344060;28;1362;-84
2023/04/02 00:28:25;;;;;;;11.77;7.65;;;;;;;;;;342609;28;1276;-84
2023/04/02 00:28:35;;;;;;;12.83;7.77;;;;;;;;;;342835;28;883;-84
2023/04/02 00:28:46;;;;;;;13.00;7.40;;;;;;;;;;341458;29;1295;-89
2023/04/02 00:29:00;;;;;;;12.52;7.60;;;;;;;;;;341439;29;1412;-84
2023/04/02 00:29:12;;;;;;;12.25;7.78;;;;;;;;;;336782;28;1316;-84
2023/04/02 00:29:23;;;;;;;12.43;7.70;;;;;;;;;;340996;28;1270;-85
2023/04/02 00:29:33;;;;;;;11.20;7.10;;;;;;;;;;342708;28;890;-84
2023/04/02 00:29:51;;;;;;;11.80;7.13;;;;;;;;;;341343;29;1193;-84
2023/04/02 00:30:03;;;;;;;11.73;7.13;;;;;;;;;;342767;28;875;-84
2023/04/02 00:30:13;;;;;;;11.50;7.18;;;;;;;;;;342546;28;1263;-84
2023/04/02 00:30:24;;;;;;;14.30;7.17;;;;;;;;;;342504;28;946;-84
2023/04/02 00:30:34;;;;;;;15.00;7.07;;;;;;;;;;342670;28;812;-84
2023/04/02 00:30:47;;;;;;;14.93;7.43;;;;;;;;;;344120;28;1281;-85
2023/04/02 00:30:58;;;;;;;13.25;7.75;;;;;;;;;;341605;29;891;-84
2023/04/02 00:31:08;;;;;;;12.45;7.65;;;;;;;;;;340308;29;1286;-85
2023/04/02 00:31:19;;;;;;;13.50;7.63;;;;;;;;;;341085;29;797;-85
2023/04/02 00:31:29;;;;;;;12.18;7.57;;;;;;;;;;340089;29;1292;-84
2023/04/02 00:31:41;;;;;;;11.03;7.47;;;;;;;;;;338689;29;1274;-84
2023/04/02 00:31:52;;;;;;;12.02;7.88;;;;;;;;;;342369;28;1315;-84
2023/04/02 00:32:03;;;;;;;12.77;7.45;;;;;;;;;;345437;28;1593;-85
2023/04/02 00:32:20;;;;;;;10.82;7.22;;;;;;;;;;345482;28;894;-84
2023/04/02 00:32:30;;;;;;;11.27;7.80;;;;;;;;;;341428;29;1400;-84
2023/04/02 00:32:41;;;;;;;12.13;8.25;;;;;;;;;;340120;29;1517;-84
2023/04/02 00:32:51;;;;;;;13.03;7.93;;;;;;;;;;340286;29;931;-84
2023/04/02 00:33:02;;;;;;;13.93;7.72;;;;;;;;;;341399;29;1278;-84
2023/04/02 00:33:17;;;;;;;13.63;7.90;;;;;;;;;;339861;29;1397;-84
2023/04/02 00:33:29;;;;;;;11.65;7.90;;;;;;;;;;342766;28;895;-84
2023/04/02 00:33:41;;;;;;;11.38;7.55;;;;;;;;;;344200;28;962;-84
2023/04/02 00:33:51;;;;;;;11.90;7.40;;;;;;;;;;341579;29;915;-84
2023/04/02 00:34:03;;;;;;;11.87;7.77;;;;;;;;;;341550;29;875;-84
2023/04/02 00:34:30;;;;;;;11.30;7.78;;;;;;;;;;342643;28;1239;-84
2023/04/02 00:34:40;;;;;;;13.20;8.38;;;;;;;;;;341349;29;856;-84
2023/04/02 00:34:51;;;;;;;11.73;7.93;;;;;;;;;;340237;29;805;-84
2023/04/02 00:35:01;;;;;;;11.80;7.95;;;;;;;;;;340302;29;891;-82
2023/04/02 00:35:20;;;;;;;12.23;8.23;;;;;;;;;;341661;28;1284;-83
2023/04/02 00:35:30;;;;;;;12.65;8.30;;;;;;;;;;342851;28;868;-88
2023/04/02 00:35:41;;;;;;;9.60;7.10;;;;;;;;;;341368;29;843;-84
2023/04/02 00:35:51;;;;;;;10.70;6.73;;;;;;;;;;342912;28;1074;-84
2023/04/02 00:36:05;;;;;;;10.60;6.85;;;;;;;;;;340302;29;1017;-84
2023/04/02 00:36:18;;;;;;;12.15;7.75;;;;;;;;;;341424;29;915;-84
2023/04/02 00:36:32;;;;;;;13.23;7.80;;;;;;;;;;341474;29;856;-84
2023/04/02 00:36:43;;;;;;;14.07;7.47;;;;;;;;;;338850;29;1436;-84
2023/04/02 00:36:53;;;;;;;13.50;7.50;;;;;;;;;;340107;29;1264;-84
2023/04/02 00:37:04;;;;;;;11.00;7.40;;;;;;;;;;345328;28;1274;-84
2023/04/02 00:37:22;;;;;;;11.68;7.40;;;;;;;;;;343959;28;879;-84
2023/04/02 00:37:40;;;;;;;10.73;7.20;;;;;;;;;;341265;29;924;-84
2023/04/02 00:37:51;;;;;;;10.85;7.32;;;;;;;;;;344183;28;887;-84
2023/04/02 00:38:02;;;;;;;12.30;7.40;;;;;;;;;;345592;28;815;-84
2023/04/02 00:38:24;;;;;;;11.93;7.43;;;;;;;;;;341353;28;1197;-84
2023/04/02 00:38:35;;;;;;;12.18;7.88;;;;;;;;;;341270;29;852;-84
2023/04/02 00:38:45;;;;;;;14.57;7.77;;;;;;;;;;340172;29;868;-84
2023/04/02 00:38:59;;;;;;;14.52;7.57;;;;;;;;;;341550;29;861;-84
2023/04/02 00:39:16;;;;;;;14.30;7.43;;;;;;;;;;341052;28;978;-83
2023/04/02 00:39:29;;;;;;;12.82;8.23;;;;;;;;;;342503;28;1366;-85
2023/04/02 00:39:42;;;;;;;12.25;8.68;;;;;;;;;;342733;28;946;-84
2023/04/02 00:40:06;;;;;;;11.73;7.90;;;;;;;;;;342909;28;939;-84
2023/04/02 00:40:27;;;;;;;13.50;7.65;;;;;;;;;;341503;29;831;-84
2023/04/02 00:40:37;;;;;;;10.02;7.55;;;;;;;;;;340054;29;857;-84
2023/04/02 00:40:48;;;;;;;10.63;7.60;;;;;;;;;;344260;28;1195;-84
2023/04/02 00:41:01;;;;;;;12.45;7.80;;;;;;;;;;342914;28;899;-84
2023/04/02 00:41:17;;;;;;;12.75;7.43;;;;;;;;;;342435;28;1295;-84
2023/04/02 00:41:28;;;;;;;13.27;7.90;;;;;;;;;;342467;28;911;-84
2023/04/02 00:41:45;;;;;;;11.90;7.80;;;;;;;;;;345442;28;985;-84
2023/04/02 00:42:05;;;;;;;11.23;7.57;;;;;;;;;;340057;29;1314;-84
2023/04/02 00:42:17;;;;;;;13.80;8.15;;;;;;;;;;342857;28;931;-83
2023/04/02 00:42:29;;;;;;;14.88;8.63;;;;;;;;;;342669;28;915;-84
2023/04/02 00:42:39;;;;;;;13.63;8.10;;;;;;;;;;344075;28;1111;-83
2023/04/02 00:42:51;;;;;;;12.43;7.67;;;;;;;;;;340268;29;777;-84
2023/04/02 00:43:02;;;;;;;10.88;7.07;;;;;;;;;;338792;29;1400;-84
2023/04/02 00:43:15;;;;;;;10.77;7.13;;;;;;;;;;338762;29;880;-84
2023/04/02 00:43:27;;;;;;;10.57;7.20;;;;;;;;;;339865;29;920;-84
2023/04/02 00:43:38;;;;;;;11.00;7.55;;;;;;;;;;339923;29;1910;-84
2023/04/02 00:43:50;;;;;;;11.88;7.32;;;;;;;;;;342883;28;880;-84
2023/04/02 00:44:01;;;;;;;11.90;7.43;;;;;;;;;;344215;28;847;-84
2023/04/02 00:44:13;;;;;;;12.45;7.38;;;;;;;;;;342668;28;1760;-84
2023/04/02 00:44:23;;;;;;;13.10;7.07;;;;;;;;;;340038;29;919;-84
2023/04/02 00:44:41;;;;;;;12.02;7.00;;;;;;;;;;342686;28;1173;-84
2023/04/02 00:44:53;;;;;;;10.90;7.32;;;;;;;;;;341460;29;1474;-84
2023/04/02 00:45:05;;;;;;;12.30;7.22;;;;;;;;;;341308;29;1256;-84
2023/04/02 00:45:27;;;;;;;12.65;6.72;;;;;;;;;;340055;29;832;-85
2023/04/02 00:45:38;;;;;;;12.88;7.25;;;;;;;;;;342596;28;1289;-84
2023/04/02 00:45:49;;;;;;;11.40;7.13;;;;;;;;;;342873;28;1128;-84
2023/04/02 00:46:03;;;;;;;12.98;7.43;;;;;;;;;;342780;28;1232;-84
2023/04/02 00:46:20;;;;;;;12.48;7.47;;;;;;;;;;340128;29;1497;-84
2023/04/02 00:46:47;;;;;;;10.65;7.25;;;;;;;;;;341167;29;856;-84
2023/04/02 00:47:01;;;;;;;12.48;8.07;;;;;;;;;;341536;29;934;-84
2023/04/02 00:47:23;;;;;;;12.10;7.68;;;;;;;;;;342626;28;1506;-84
2023/04/02 00:47:35;;;;;;;13.23;7.95;;;;;;;;;;341403;29;947;-84
2023/04/02 00:47:45;;;;;;;13.27;7.97;;;;;;;;;;338806;29;1890;-84
2023/04/02 00:47:58;;;;;;;14.23;7.67;;;;;;;;;;338867;29;1379;-84
2023/04/02 00:48:20;;;;;;;15.73;8.10;;;;;;;;;;338688;29;1215;-84
2023/04/02 00:48:30;;;;;;;12.52;7.82;;;;;;;;;;338577;29;1364;-84
2023/04/02 00:48:59;;;;;;;12.30;7.43;;;;;;;;;;338872;29;911;-84
2023/04/02 00:49:15;;;;;;;15.35;7.55;;;;;;;;;;339872;29;952;-85
2023/04/02 00:49:35;;;;;;;15.02;7.05;;;;;;;;;;341200;29;1288;-84
2023/04/02 00:49:46;;;;;;;11.35;7.03;;;;;;;;;;340071;29;886;-84
2023/04/02 00:50:03;;;;;;;10.38;6.88;;;;;;;;;;342813;28;789;-84
2023/04/02 00:50:14;;;;;;;9.68;7.03;;;;;;;;;;342772;28;1254;-82
2023/04/02 00:50:35;;;;;;;11.83;7.23;;;;;;;;;;342541;28;1198;-84
2023/04/02 00:50:45;;;;;;;13.05;6.72;;;;;;;;;;340174;29;1022;-84
2023/04/02 00:50:56;;;;;;;12.10;6.97;;;;;;;;;;339967;29;1371;-84
2023/04/02 00:51:11;;;;;;;11.02;7.15;;;;;;;;;;342506;28;1352;-83
2023/04/02 00:51:22;;;;;;;11.15;7.10;;;;;;;;;;341509;29;891;-83
2023/04/02 00:51:37;;;;;;;12.97;7.73;;;;;;;;;;341214;29;946;-84
2023/04/02 00:51:59;;;;;;;13.00;7.93;;;;;;;;;;341478;29;904;-84
2023/04/02 00:52:15;;;;;;;12.73;8.35;;;;;;;;;;340056;29;943;-84
2023/04/02 00:52:28;;;;;;;11.32;7.50;;;;;;;;;;339959;29;931;-84
2023/04/02 00:52:39;;;;;;;9.75;7.15;;;;;;;;;;341460;29;910;-84
2023/04/02 00:52:50;;;;;;;10.50;7.73;;;;;;;;;;341303;29;1263;-84
2023/04/02 00:53:10;;;;;;;12.02;7.65;;;;;;;;;;341506;29;852;-83
2023/04/02 00:53:26;;;;;;;11.30;7.45;;;;;;;;;;338853;29;935;-84
2023/04/02 00:53:36;;;;;;;12.27;7.75;;;;;;;;;;338524;28;1606;-84
2023/04/02 00:53:47;;;;;;;13.43;7.40;;;;;;;;;;339779;29;1527;-83
2023/04/02 00:54:00;;;;;;;14.50;7.60;;;;;;;;;;339767;29;865;-84
2023/04/02 00:54:14;;;;;;;15.18;7.50;;;;;;;;;;338921;29;1381;-84
2023/04/02 00:54:26;;;;;;;13.82;7.10;;;;;;;;;;341539;29;859;-84
2023/04/02 00:54:52;;;;;;;13.25;7.05;;;;;;;;;;343339;28;997;-84
2023/04/02 00:55:23;;;;;;;10.15;6.90;;;;;;;;;;342496;28;1232;-84
2023/04/02 00:55:38;;;;;;;10.45;6.72;;;;;;;;;;340940;29;1279;-84
2023/04/02 00:55:48;;;;;;;12.30;6.93;;;;;;;;;;340804;29;852;-84
2023/04/02 00:55:59;;;;;;;14.15;7.22;;;;;;;;;;341191;29;1321;-84
2023/04/02 00:56:29;;;;;;;12.03;6.73;;;;;;;;;;341494;29;840;-84
2023/04/02 00:56:41;;;;;;;14.07;7.15;;;;;;;;;;341454;29;915;-84
2023/04/02 00:56:53;;;;;;;12.38;7.07;;;;;;;;;;342864;28;891;-84
2023/04/02 00:57:04;;;;;;;11.85;6.97;;;;;;;;;;341127;29;1343;-83
2023/04/02 00:57:22;;;;;;;11.63;6.90;;;;;;;;;;342122;28;1496;-84
2023/04/02 00:57:32;;;;;;;10.70;6.78;;;;;;;;;;341122;29;921;-84
2023/04/02 00:57:43;;;;;;;11.05;6.85;;;;;;;;;;340041;29;1173;-84
2023/04/02 00:57:54;;;;;;;12.07;7.10;;;;;;;;;;344022;28;1318;-83
2023/04/02 00:58:18;;;;;;;12.57;7.22;;;;;;;;;;338605;29;1187;-84
2023/04/02 00:58:31;;;;;;;12.00;6.80;;;;;;;;;;342390;28;1283;-84
2023/04/02 00:58:42;;;;;;;13.85;6.93;;;;;;;;;;342653;28;1233;-84
2023/04/02 00:58:53;;;;;;;14.10;7.13;;;;;;;;;;342789;28;1389;-84
2023/04/02 00:59:04;;;;;;;13.85;7.03;;;;;;;;;;342627;28;1322;-84
2023/04/02 00:59:26;;;;;;;10.23;6.85;;;;;;;;;;342715;28;1289;-83
2023/04/02 01:00:08;;;;;;;11.00;6.78;;;;;;;;;;339698;29;1167;-84
2023/04/02 01:00:20;;;;;;;11.35;6.88;;;;;;;;;;336207;29;1120;-84
2023/04/02 01:00:52;;;;;;;9.70;6.38;;;;;;;;;;336063;29;885;-84
2023/04/02 01:01:03;;;;;;;10.00;6.90;;;;;;;;;;338585;29;1372;-84
2023/04/02 01:01:17;;;;;;;10.77;7.40;;;;;;;;;;342608;28;1190;-82
2023/04/02 01:01:34;;;;;;;10.93;7.50;;;;;;;;;;339730;29;1244;-84
2023/04/02 01:01:45;;;;;;;10.77;7.35;;;;;;;;;;340130;29;1019;-84
2023/04/02 01:02:16;;;;;;;11.57;7.38;;;;;;;;;;339913;29;1447;-84
2023/04/02 01:02:29;;;;;;;9.57;6.53;;;;;;;;;;340088;29;896;-84
2023/04/02 01:02:40;;;;;;;9.20;6.35;;;;;;;;;;338738;29;856;-84
2023/04/02 01:03:33;;;;;;;10.00;6.50;;;;;;;;;;340229;29;801;-84
2023/04/02 01:03:56;;;;;;;12.68;6.65;;;;;;;;;;340077;29;943;-84
2023/04/02 01:04:31;;;;;;;11.18;6.90;;;;;;;;;;340059;29;861;-83
2023/04/02 01:04:42;;;;;;;12.38;7.60;;;;;;;;;;341498;28;876;-83
2023/04/02 01:05:10;;;;;;;10.47;7.30;;;;;;;;;;342821;28;895;-83
2023/04/02 01:05:21;;;;;;;10.23;7.35;;;;;;;;;;341547;29;860;-84
2023/04/02 01:05:33;;;;;;;10.05;7.07;;;;;;;;;;341293;29;911;-83
2023/04/02 01:05:44;;;;;;;11.10;7.45;;;;;;;;;;339828;29;837;-83
2023/04/02 01:06:00;;;;;;;12.40;7.75;;;;;;;;;;340127;29;805;-83
2023/04/02 01:06:13;;;;;;;13.50;7.90;;;;;;;;;;341275;29;868;-83
2023/04/02 01:06:29;;;;;;;11.25;7.28;;;;;;;;;;341544;29;852;-83
2023/04/02 01:06:39;;;;;;;9.30;6.50;;;;;;;;;;343761;28;1221;-83
2023/04/02 01:06:52;;;;;;;8.93;6.20;;;;;;;;;;342686;28;919;-83
2023/04/02 01:07:05;;;;;;;8.98;6.50;;;;;;;;;;340220;29;880;-83
2023/04/02 01:07:15;;;;;;;10.52;7.32;;;;;;;;;;341384;28;1376;-83
2023/04/02 01:07:58;;;;;;;11.93;7.60;;;;;;;;;;341427;29;1154;-83
2023/04/02 01:08:20;;;;;;;10.45;6.40;;;;;;;;;;341382;29;908;-83
2023/04/02 01:08:55;;;;;;;11.23;6.75;;;;;;;;;;342486;28;931;-83
2023/04/02 01:09:31;;;;;;;11.60;6.72;;;;;;;;;;341319;28;924;-83
2023/04/02 01:09:59;;;;;;;11.65;6.95;;;;;;;;;;340968;29;849;-83
2023/04/02 01:10:36;;;;;;;11.38;7.07;;;;;;;;;;342765;28;793;-83
2023/04/02 01:11:12;;;;;;;13.65;8.43;;;;;;;;;;342629;28;1213;-83
2023/04/02 01:11:41;;;;;;;12.40;7.47;;;;;;;;;;342854;28;860;-83
2023/04/02 01:11:57;;;;;;;10.23;7.40;;;;;;;;;;342303;28;1268;-83
2023/04/02 01:12:29;;;;;;;10.88;6.93;;;;;;;;;;343621;28;1113;-83
2023/04/02 01:13:00;;;;;;;9.73;6.53;;;;;;;;;;339855;29;919;-83
2023/04/02 01:13:30;;;;;;;8.93;5.95;;;;;;;;;;342674;28;898;-83
2023/04/02 01:13:47;;;;;;;9.45;6.25;;;;;;;;;;341035;29;1478;-83
2023/04/02 01:14:06;;;;;;;9.95;6.43;;;;;;;;;;341478;29;932;-83
2023/04/02 01:14:33;;;;;;;13.43;6.93;;;;;;;;;;341376;29;1352;-83
2023/04/02 01:14:52;;;;;;;11.50;6.35;;;;;;;;;;342560;28;908;-83
2023/04/02 01:15:37;;;;;;;12.20;7.75;;;;;;;;;;341550;29;863;-83
2023/04/02 01:16:10;;;;;;;10.32;6.85;;;;;;;;;;340024;29;939;-83
2023/04/02 01:16:29;;;;;;;13.10;7.03;;;;;;;;;;339954;29;895;-83
2023/04/02 01:16:54;;;;;;;13.65;7.13;;;;;;;;;;341020;29;954;-83
2023/04/02 01:17:11;;;;;;;13.07;7.00;;;;;;;;;;338783;29;935;-83
2023/04/02 01:17:45;;;;;;;11.75;6.10;;;;;;;;;;338739;29;833;-83
2023/04/02 01:18:30;;;;;;;10.85;6.85;;;;;;;;;;338060;29;1431;-83
2023/04/02 01:18:50;;;;;;;11.00;6.32;;;;;;;;;;339310;29;1441;-84
2023/04/02 01:19:17;;;;;;;11.90;6.93;;;;;;;;;;339323;29;892;-83
2023/04/02 01:19:52;;;;;;;10.70;6.32;;;;;;;;;;338681;29;966;-83
2023/04/02 01:20:26;;;;;;;12.35;6.72;;;;;;;;;;337262;29;1294;-83
2023/04/02 01:20:45;;;;;;;15.27;7.05;;;;;;;;;;337285;29;955;-83
2023/04/02 01:21:05;;;;;;;10.93;6.65;;;;;;;;;;337505;29;923;-83
2023/04/02 01:21:20;;;;;;;10.43;6.25;;;;;;;;;;337429;29;1423;-83
2023/04/02 01:21:52;;;;;;;11.27;6.40;;;;;;;;;;336242;29;923;-83
2023/04/02 01:22:22;;;;;;;10.63;6.47;;;;;;;;;;339908;29;1236;-85
2023/04/02 01:22:58;;;;;;;9.07;6.28;;;;;;;;;;337440;29;829;-84
2023/04/02 01:23:20;;;;;;;12.88;7.10;;;;;;;;;;338619;29;936;-83
2023/04/02 01:23:42;;;;;;;10.73;7.00;;;;;;;;;;337379;29;840;-83
2023/04/02 01:23:59;;;;;;;10.15;7.03;;;;;;;;;;337363;29;1457;-83
2023/04/02 01:24:12;;;;;;;10.38;6.55;;;;;;;;;;337436;29;880;-83
2023/04/02 01:24:24;;;;;;;9.77;6.25;;;;;;;;;;338835;29;833;-83
2023/04/02 01:24:36;;;;;;;8.52;5.97;;;;;;;;;;338561;29;900;-83
2023/04/02 01:24:46;;;;;;;9.15;6.22;;;;;;;;;;338403;29;1097;-83
2023/04/02 01:24:57;;;;;;;11.20;6.77;;;;;;;;;;338791;29;955;-83
2023/04/02 01:25:07;;;;;;;11.40;6.82;;;;;;;;;;339896;29;1441;-83
2023/04/02 01:25:23;;;;;;;11.45;6.78;;;;;;;;;;340831;29;1662;-83
2023/04/02 01:25:50;;;;;;;12.38;7.07;;;;;;;;;;338578;29;1421;-83
2023/04/02 01:26:34;;;;;;;11.05;6.68;;;;;;;;;;338702;29;932;-83
2023/04/02 01:26:45;;;;;;;12.15;6.32;;;;;;;;;;335811;29;1248;-83
2023/04/02 01:27:00;;;;;;;11.60;6.68;;;;;;;;;;336264;29;816;-83
2023/04/02 01:27:20;;;;;;;10.73;6.68;;;;;;;;;;338563;29;1360;-83
2023/04/02 01:27:50;;;;;;;10.63;6.95;;;;;;;;;;340120;29;860;-83
2023/04/02 01:28:20;;;;;;;11.32;6.63;;;;;;;;;;339949;29;892;-83
2023/04/02 01:29:03;;;;;;;9.35;6.20;;;;;;;;;;339938;29;1533;-83
2023/04/02 01:29:18;;;;;;;9.93;6.45;;;;;;;;;;341301;29;1249;-84
2023/04/02 01:29:31;;;;;;;9.63;6.63;;;;;;;;;;342840;28;915;-83
2023/04/02 01:29:51;;;;;;;12.38;6.97;;;;;;;;;;342250;28;872;-83
2023/04/02 01:30:02;;;;;;;13.95;7.00;;;;;;;;;;341317;29;860;-84
2023/04/02 01:30:13;;;;;;;11.27;6.70;;;;;;;;;;339671;29;1288;-84
2023/04/02 01:30:23;;;;;;;10.77;6.30;;;;;;;;;;334834;29;1350;-83
2023/04/02 01:30:34;;;;;;;10.48;6.20;;;;;;;;;;338593;29;1301;-83
2023/04/02 01:30:47;;;;;;;9.83;6.07;;;;;;;;;;340937;29;1410;-84
2023/04/02 01:30:58;;;;;;;9.93;6.20;;;;;;;;;;339742;29;1403;-83
2023/04/02 01:31:08;;;;;;;9.23;6.40;;;;;;;;;;342536;28;1181;-84
2023/04/02 01:31:19;;;;;;;9.40;6.45;;;;;;;;;;342810;28;781;-84
2023/04/02 01:31:31;;;;;;;10.13;6.10;;;;;;;;;;340027;29;1296;-83
2023/04/02 01:31:43;;;;;;;10.80;6.00;;;;;;;;;;339599;29;1021;-83
2023/04/02 01:31:56;;;;;;;9.70;5.65;;;;;;;;;;340019;29;1242;-84
2023/04/02 01:32:12;;;;;;;9.15;6.05;;;;;;;;;;338538;29;1371;-83
2023/04/02 01:32:23;;;;;;;11.00;6.22;;;;;;;;;;341374;29;1287;-84
2023/04/02 01:32:33;;;;;;;10.95;6.20;;;;;;;;;;341281;29;1255;-84
2023/04/02 01:32:44;;;;;;;11.03;6.20;;;;;;;;;;338432;29;1211;-83
2023/04/02 01:32:55;;;;;;;9.90;6.28;;;;;;;;;;338784;29;773;-85
2023/04/02 01:33:05;;;;;;;12.03;6.50;;;;;;;;;;338653;29;1156;-83
2023/04/02 01:33:16;;;;;;;12.45;6.78;;;;;;;;;;338730;29;1226;-84
2023/04/02 01:33:29;;;;;;;12.27;6.88;;;;;;;;;;337385;29;1257;-84
2023/04/02 01:33:39;;;;;;;9.52;6.50;;;;;;;;;;338575;29;887;-84
2023/04/02 01:33:50;;;;;;;9.80;6.37;;;;;;;;;;335803;29;1248;-83
2023/04/02 01:34:02;;;;;;;10.88;6.65;;;;;;;;;;336119;29;952;-83
2023/04/02 01:34:14;;;;;;;11.20;6.97;;;;;;;;;;338641;29;1246;-83
2023/04/02 01:34:26;;;;;;;11.38;7.07;;;;;;;;;;340020;29;1413;-84
2023/04/02 01:34:36;;;;;;;10.45;6.63;;;;;;;;;;339837;29;1425;-83
2023/04/02 01:34:48;;;;;;;9.37;6.20;;;;;;;;;;339757;29;840;-83
2023/04/02 01:34:58;;;;;;;8.77;5.93;;;;;;;;;;338838;29;955;-83
2023/04/02 01:35:09;;;;;;;9.83;6.27;;;;;;;;;;341372;29;880;-84
2023/04/02 01:35:20;;;;;;;10.45;6.22;;;;;;;;;;341474;29;840;-83
2023/04/02 01:35:32;;;;;;;11.35;6.65;;;;;;;;;;341267;29;1251;-83
2023/04/02 01:35:44;;;;;;;10.73;6.90;;;;;;;;;;337300;29;876;-83
2023/04/02 01:36:00;;;;;;;9.38;6.70;;;;;;;;;;336098;29;1473;-84
2023/04/02 01:36:26;;;;;;;8.18;6.03;;;;;;;;;;336368;29;1249;-83
2023/04/02 01:37:15;;;;;;;9.65;6.63;;;;;;;;;;338623;29;872;-82
2023/04/02 01:37:43;;;;;;;9.27;6.25;;;;;;;;;;340034;29;981;-83
2023/04/02 01:38:14;;;;;;;10.80;6.85;;;;;;;;;;337070;29;892;-82
2023/04/02 01:38:30;;;;;;;14.52;7.32;;;;;;;;;;337012;29;896;-83
2023/04/02 01:39:23;;;;;;;13.52;6.18;;;;;;;;;;335940;29;900;-82
2023/04/02 01:39:55;;;;;;;10.75;7.00;;;;;;;;;;337188;29;1281;-83
2023/04/02 01:40:24;;;;;;;13.63;6.80;;;;;;;;;;338530;29;1334;-82
2023/04/02 01:40:39;;;;;;;11.75;6.43;;;;;;;;;;338354;29;968;-83
2023/04/02 01:41:26;;;;;;;10.07;6.45;;;;;;;;;;338469;29;1417;-83
2023/04/02 01:41:42;;;;;;;8.95;6.05;;;;;;;;;;338758;29;1141;-83
2023/04/02 01:42:19;;;;;;;8.77;6.35;;;;;;;;;;337131;29;1386;-83
2023/04/02 01:42:54;;;;;;;11.25;6.35;;;;;;;;;;334731;29;2080;-83